createdAt,value
2022-08-28T08:58:02.681Z,28.56
2022-08-28T09:00:15.015Z,28.56
2022-08-28T09:02:22.576Z,28.09
2022-08-28T09:05:06.012Z,28.10
2022-08-28T09:07:16.563Z,28.38
2022-08-28T09:09:26.202Z,28.63
2022-08-28T09:11:38.926Z,28.89
2022-08-28T09:13:54.309Z,29.03
2022-08-28T09:15:56.885Z,29.02
2022-08-28T09:18:18.363Z,28.98
2022-08-28T09:20:30.220Z,28.81
2022-08-28T09:22:37.500Z,28.98
2022-08-28T09:24:42.221Z,29.01
2022-08-28T09:27:14.489Z,28.83
2022-08-28T09:29:19.044Z,28.89
2022-08-28T09:31:34.693Z,29.00
2022-08-28T09:33:42.326Z,29.17
2022-08-28T09:35:44.621Z,29.25
2022-08-28T09:37:46.877Z,29.16
2022-08-28T09:39:49.436Z,29.36
2022-08-28T09:42:21.583Z,29.45
2022-08-28T09:44:23.949Z,29.52
2022-08-28T09:46:31.802Z,29.78
2022-08-28T09:48:38.920Z,29.74
2022-08-28T09:50:42.508Z,30.23
2022-08-28T09:52:46.278Z,30.19
2022-08-28T09:54:49.925Z,29.87
2022-08-28T09:56:52.937Z,29.89
2022-08-28T09:59:13.483Z,29.98
2022-08-28T10:01:23.266Z,29.81
2022-08-28T10:03:34.244Z,29.64
2022-08-28T10:05:59.189Z,29.62
2022-08-28T10:08:20.823Z,29.55
2022-08-28T10:10:45.842Z,29.52
2022-08-28T10:12:53.912Z,30.08
2022-08-28T10:15:25.420Z,30.35
2022-08-28T10:17:34.101Z,29.88
2022-08-28T10:19:50.989Z,29.93
2022-08-28T10:22:23.541Z,30.01
2022-08-28T10:24:34.883Z,30.16
2022-08-28T10:26:55.520Z,29.96
2022-08-28T10:29:41.383Z,30.03
2022-08-28T10:31:58.856Z,30.27
2022-08-28T10:34:30.106Z,30.75
2022-08-28T10:36:35.310Z,31.26
2022-08-28T10:38:41.924Z,31.50
2022-08-28T10:40:52.021Z,31.64
2022-08-28T10:43:04.972Z,31.37
2022-08-28T10:45:22.291Z,31.29
2022-08-28T10:47:26.463Z,31.00
2022-08-28T10:49:41.741Z,31.28
2022-08-28T10:51:52.291Z,31.61
2022-08-28T10:54:00.146Z,31.59
2022-08-28T10:56:25.489Z,31.84
2022-08-28T10:58:30.424Z,32.08
2022-08-28T11:00:34.696Z,31.71
2022-08-28T11:02:38.067Z,32.17
2022-08-28T11:04:40.795Z,32.44
2022-08-28T11:06:52.200Z,32.85
2022-08-28T11:09:20.786Z,32.96
2022-08-28T11:11:43.378Z,32.81
2022-08-28T11:13:54.972Z,32.61
2022-08-28T11:15:57.376Z,32.73
2022-08-28T11:18:16.817Z,33.30
2022-08-28T11:20:28.438Z,32.75
2022-08-28T11:22:56.597Z,32.70
2022-08-28T11:25:17.455Z,33.04
2022-08-28T11:27:34.783Z,34.31
2022-08-28T11:30:02.200Z,35.60
2022-08-28T11:32:32.907Z,38.18
2022-08-28T11:35:06.448Z,39.16
2022-08-28T11:37:09.106Z,39.27
2022-08-28T11:39:15.512Z,39.51
2022-08-28T11:41:24.292Z,39.10
2022-08-28T11:43:29.909Z,38.43
2022-08-28T11:45:47.769Z,40.07
2022-08-28T11:47:54.075Z,40.01
2022-08-28T11:50:04.924Z,40.94
2022-08-28T11:52:29.760Z,41.09
2022-08-28T11:54:47.169Z,42.86
2022-08-28T11:57:10.546Z,43.14
2022-08-28T11:59:21.030Z,43.23
2022-08-28T12:01:31.275Z,43.21
2022-08-28T12:03:58.250Z,43.68
2022-08-28T12:06:00.830Z,43.70
2022-08-28T12:08:05.086Z,42.46
2022-08-28T12:10:22.895Z,42.19
2022-08-28T12:12:25.107Z,41.63
2022-08-28T12:14:27.874Z,42.33
2022-08-28T12:16:30.555Z,43.77
2022-08-28T12:18:39.010Z,42.36
2022-08-28T12:20:58.902Z,44.27
2022-08-28T12:23:23.670Z,44.42
2022-08-28T12:25:39.457Z,44.45
2022-08-28T12:27:42.041Z,43.28
2022-08-28T12:29:49.788Z,44.03
2022-08-28T12:32:12.736Z,42.82
2022-08-28T12:34:53.789Z,41.59
2022-08-28T12:37:02.158Z,42.47
2022-08-28T12:39:04.512Z,42.68
2022-08-28T12:41:15.163Z,43.31
2022-08-28T12:43:24.478Z,42.67
2022-08-28T12:46:08.478Z,43.51
2022-08-28T12:48:29.486Z,41.93
2022-08-28T12:50:38.327Z,40.87
2022-08-28T12:52:52.155Z,41.10
2022-08-28T12:54:58.886Z,40.62
2022-08-28T12:57:04.877Z,39.60
2022-08-28T12:59:32.630Z,40.09
2022-08-28T13:01:35.552Z,39.38
2022-08-28T13:03:50.200Z,39.13
2022-08-28T13:06:11.225Z,37.42
2022-08-28T13:08:22.023Z,36.30
2022-08-28T13:10:31.387Z,35.51
2022-08-28T13:12:54.900Z,34.93
2022-08-28T13:14:58.335Z,34.44
2022-08-28T13:17:01.152Z,34.60
2022-08-28T13:19:06.774Z,34.11
2022-08-28T13:21:32.536Z,33.85
2022-08-28T13:23:36.424Z,33.51
2022-08-28T13:25:38.790Z,33.17
2022-08-28T13:27:41.345Z,33.50
2022-08-28T13:29:59.668Z,33.48
2022-08-28T13:32:05.114Z,33.46
2022-08-28T13:34:13.173Z,33.78
2022-08-28T13:36:24.870Z,33.98
2022-08-28T13:38:27.123Z,34.14
2022-08-28T13:40:59.148Z,34.01
2022-08-28T13:43:07.087Z,33.79
2022-08-28T13:45:10.084Z,33.67
2022-08-28T13:47:13.987Z,33.75
2022-08-28T13:49:17.088Z,33.87
2022-08-28T13:51:21.501Z,33.27
2022-08-28T13:53:24.161Z,33.14
2022-08-28T13:55:26.666Z,33.70
2022-08-28T13:57:29.377Z,32.92
2022-08-28T13:59:33.990Z,32.94
2022-08-28T14:01:54.979Z,33.20
2022-08-28T14:03:58.945Z,33.10
2022-08-28T14:06:02.960Z,32.94
2022-08-28T14:08:05.407Z,33.00
2022-08-28T14:10:08.433Z,33.04
2022-08-28T14:12:11.223Z,32.79
2022-08-28T14:14:14.059Z,32.28
2022-08-28T14:16:16.889Z,32.46
2022-08-28T14:18:19.436Z,32.68
2022-08-28T14:20:22.105Z,32.62
2022-08-28T14:22:24.714Z,32.66
2022-08-28T14:24:27.444Z,32.68
2022-08-28T14:26:30.471Z,32.32
2022-08-28T14:28:33.077Z,32.50
2022-08-28T14:30:35.352Z,32.86
2022-08-28T14:32:37.718Z,32.84
2022-08-28T14:34:40.313Z,32.99
2022-08-28T14:36:43.111Z,32.70
2022-08-28T14:38:45.385Z,32.47
2022-08-28T14:40:47.933Z,32.67
2022-08-28T14:42:51.137Z,32.31
2022-08-28T14:44:54.081Z,32.27
2022-08-28T14:46:57.491Z,32.05
2022-08-28T14:49:02.348Z,32.16
2022-08-28T14:51:04.680Z,32.16
2022-08-28T14:53:07.369Z,31.64
2022-08-28T14:55:11.239Z,31.97
2022-08-28T14:57:13.725Z,32.10
2022-08-28T14:59:23.978Z,31.96
2022-08-28T15:01:40.383Z,31.85
2022-08-28T15:03:43.511Z,31.82
2022-08-28T15:05:46.834Z,31.73
2022-08-28T15:07:49.398Z,31.69
2022-08-28T15:09:51.763Z,31.55
2022-08-28T15:11:54.641Z,31.53
2022-08-28T15:13:58.566Z,31.50
2022-08-28T15:16:15.989Z,31.25
2022-08-28T15:18:18.644Z,31.36
2022-08-28T15:20:22.080Z,31.24
2022-08-28T15:22:27.212Z,31.41
2022-08-28T15:24:33.173Z,31.46
2022-08-28T15:26:36.889Z,31.48
2022-08-28T15:28:39.190Z,31.43
2022-08-28T15:30:43.325Z,30.89
2022-08-28T15:32:47.347Z,30.89
2022-08-28T15:34:49.648Z,30.98
2022-08-28T15:36:55.180Z,30.99
2022-08-28T15:39:16.982Z,30.93
2022-08-28T15:41:26.737Z,30.98
2022-08-28T15:43:29.523Z,30.80
2022-08-28T15:45:31.854Z,30.83
2022-08-28T15:47:34.134Z,30.91
2022-08-28T15:49:43.499Z,30.65
2022-08-28T15:51:49.369Z,30.66
2022-08-28T15:53:52.587Z,30.48
2022-08-28T15:55:55.231Z,30.34
2022-08-28T15:57:58.133Z,30.42
2022-08-28T16:00:00.400Z,30.34
2022-08-28T16:02:03.055Z,30.22
2022-08-28T16:04:07.388Z,30.16
2022-08-28T16:06:15.343Z,30.05
2022-08-28T16:08:17.983Z,30.10
2022-08-28T16:10:20.874Z,30.19
2022-08-28T16:12:23.147Z,29.97
2022-08-28T16:14:25.438Z,29.80
2022-08-28T16:16:27.975Z,29.52
2022-08-28T16:18:31.038Z,29.79
2022-08-28T16:20:33.638Z,29.85
2022-08-28T16:22:37.262Z,29.74
2022-08-28T16:24:39.935Z,29.56
2022-08-28T16:26:42.372Z,29.32
2022-08-28T16:28:44.966Z,29.28
2022-08-28T16:30:47.524Z,29.18
2022-08-28T16:32:50.563Z,29.30
2022-08-28T16:34:53.105Z,28.93
2022-08-28T16:36:55.430Z,29.07
2022-08-28T16:39:03.529Z,28.99
2022-08-28T16:41:18.705Z,29.05
2022-08-28T16:43:20.986Z,28.95
2022-08-28T16:45:23.457Z,29.01
2022-08-28T16:47:27.321Z,28.93
2022-08-28T16:49:34.212Z,28.84
2022-08-28T16:51:37.220Z,28.65
2022-08-28T16:53:43.249Z,28.86
2022-08-28T16:55:47.007Z,28.98
2022-08-28T16:57:49.266Z,28.68
2022-08-28T16:59:53.571Z,28.80
2022-08-28T17:01:56.034Z,28.83
2022-08-28T17:03:59.737Z,28.91
2022-08-28T17:06:14.119Z,28.67
2022-08-28T17:08:17.070Z,28.77
2022-08-28T17:10:22.299Z,28.94
2022-08-28T17:12:24.882Z,28.90
2022-08-28T17:14:27.262Z,28.65
2022-08-28T17:16:31.645Z,28.58
2022-08-28T17:18:34.987Z,28.56
2022-08-28T17:20:55.874Z,28.52
2022-08-28T17:22:58.804Z,28.56
2022-08-28T17:25:13.656Z,28.38
2022-08-28T17:27:22.397Z,28.48
2022-08-28T17:29:25.491Z,28.45
2022-08-28T17:31:28.187Z,28.28
2022-08-28T17:33:30.607Z,28.18
2022-08-28T17:35:33.641Z,28.33
2022-08-28T17:37:45.758Z,27.98
2022-08-28T17:39:48.503Z,28.11
2022-08-28T17:41:51.274Z,27.90
2022-08-28T17:43:54.392Z,27.91
2022-08-28T17:45:57.132Z,27.82
2022-08-28T17:47:59.659Z,27.72
2022-08-28T17:50:03.055Z,27.70
2022-08-28T17:52:06.555Z,27.79
2022-08-28T17:54:08.975Z,27.86
2022-08-28T17:56:11.942Z,27.89
2022-08-28T17:58:14.793Z,27.82
2022-08-28T18:00:18.651Z,27.64
2022-08-28T18:02:21.344Z,27.61
2022-08-28T18:04:24.660Z,27.61
2022-08-28T18:06:27.465Z,27.81
2022-08-28T18:08:30.416Z,27.89
2022-08-28T18:10:34.136Z,27.73
2022-08-28T18:12:36.892Z,27.85
2022-08-28T18:14:40.525Z,28.03
2022-08-28T18:16:43.243Z,28.11
2022-08-28T18:18:45.772Z,27.67
2022-08-28T18:20:48.843Z,27.80
2022-08-28T18:22:52.123Z,27.77
2022-08-28T18:24:54.816Z,27.61
2022-08-28T18:26:58.559Z,27.59
2022-08-28T18:29:01.283Z,27.83
2022-08-28T18:31:06.455Z,27.78
2022-08-28T18:33:09.680Z,27.91
2022-08-28T18:35:12.569Z,27.98
2022-08-28T18:37:15.255Z,28.21
2022-08-28T18:39:22.637Z,28.26
2022-08-28T18:41:42.990Z,28.02
2022-08-28T18:43:48.260Z,28.05
2022-08-28T18:45:51.769Z,27.99
2022-08-28T18:47:54.580Z,28.10
2022-08-28T18:49:56.888Z,28.05
2022-08-28T18:51:59.785Z,27.57
2022-08-28T18:54:03.224Z,27.58
2022-08-28T18:56:07.081Z,27.77
2022-08-28T18:58:15.503Z,27.69
2022-08-28T19:00:19.137Z,27.66
2022-08-28T19:02:22.068Z,27.55
2022-08-28T19:04:25.617Z,27.69
2022-08-28T19:06:28.426Z,27.43
2022-08-28T19:08:31.919Z,27.46
2022-08-28T19:10:37.296Z,27.70
2022-08-28T19:12:42.132Z,27.87
2022-08-28T19:14:44.881Z,27.71
2022-08-28T19:16:48.072Z,27.79
2022-08-28T19:18:52.795Z,27.88
2022-08-28T19:21:09.050Z,27.66
2022-08-28T19:23:16.801Z,27.66
2022-08-28T19:25:28.333Z,27.68
2022-08-28T19:27:31.692Z,27.52
2022-08-28T19:29:34.874Z,27.50
2022-08-28T19:31:38.022Z,27.51
2022-08-28T19:33:40.836Z,27.34
2022-08-28T19:35:43.909Z,27.30
2022-08-28T19:37:47.393Z,27.28
2022-08-28T19:39:56.269Z,27.14
2022-08-28T19:41:59.558Z,26.89
2022-08-28T19:44:02.316Z,26.91
2022-08-28T19:46:10.215Z,26.89
2022-08-28T19:48:21.830Z,27.00
2022-08-28T19:50:24.818Z,26.87
2022-08-28T19:52:27.817Z,26.97
2022-08-28T19:54:31.485Z,27.09
2022-08-28T19:56:34.896Z,27.04
2022-08-28T19:58:38.105Z,26.89
2022-08-28T20:00:41.194Z,26.52
2022-08-28T20:02:44.592Z,26.60
2022-08-28T20:04:47.300Z,26.86
2022-08-28T20:06:50.199Z,26.83
2022-08-28T20:08:53.127Z,26.93
2022-08-28T20:10:56.401Z,26.84
2022-08-28T20:12:59.185Z,26.77
2022-08-28T20:15:03.599Z,26.61
2022-08-28T20:17:06.811Z,26.39
2022-08-28T20:19:11.277Z,26.51
2022-08-28T20:21:14.749Z,26.59
2022-08-28T20:23:18.538Z,26.51
2022-08-28T20:25:21.420Z,26.54
2022-08-28T20:27:24.092Z,26.26
2022-08-28T20:29:26.496Z,26.08
2022-08-28T20:31:28.833Z,26.19
2022-08-28T20:33:32.270Z,25.98
2022-08-28T20:35:34.939Z,26.09
2022-08-28T20:37:44.928Z,26.03
2022-08-28T20:39:48.171Z,26.00
2022-08-28T20:41:50.648Z,26.02
2022-08-28T20:43:52.921Z,25.98
2022-08-28T20:45:55.508Z,25.90
2022-08-28T20:47:57.795Z,26.00
2022-08-28T20:50:00.161Z,26.16
2022-08-28T20:52:03.280Z,26.16
2022-08-28T20:54:05.680Z,26.09
2022-08-28T20:56:10.096Z,25.92
2022-08-28T20:58:14.299Z,25.84
2022-08-28T21:00:16.809Z,25.79
2022-08-28T21:02:23.659Z,25.90
2022-08-28T21:04:28.430Z,25.99
2022-08-28T21:06:31.179Z,26.01
2022-08-28T21:08:33.436Z,25.93
2022-08-28T21:10:36.443Z,25.85
2022-08-28T21:12:40.045Z,25.50
2022-08-28T21:14:43.348Z,25.68
2022-08-28T21:16:54.880Z,25.78
2022-08-28T21:19:15.240Z,25.74
2022-08-28T21:21:18.499Z,25.64
2022-08-28T21:23:22.935Z,25.73
2022-08-28T21:25:25.492Z,25.75
2022-08-28T21:27:28.321Z,25.72
2022-08-28T21:29:31.310Z,25.74
2022-08-28T21:31:33.895Z,25.70
2022-08-28T21:33:36.462Z,25.75
2022-08-28T21:35:41.804Z,25.63
2022-08-28T21:37:44.767Z,25.57
2022-08-28T21:39:47.111Z,25.38
2022-08-28T21:41:49.991Z,25.33
2022-08-28T21:43:52.365Z,25.38
2022-08-28T21:46:02.721Z,25.30
2022-08-28T21:48:05.814Z,25.40
2022-08-28T21:50:09.019Z,25.39
2022-08-28T21:52:11.276Z,25.09
2022-08-28T21:54:14.231Z,25.27
2022-08-28T21:56:23.014Z,25.27
2022-08-28T21:58:25.515Z,25.11
